sensor_id;sensor_type;location;lat;lon;timestamp;P1;durP1;ratioP1;P2;durP2;ratioP2
66957;SDS011;53892;43.258;-2.932;2022-12-08T00:01:12;9.60;;;5.15;;
66957;SDS011;53892;43.258;-2.932;2022-12-08T00:03:39;14.75;;;6.20;;
66957;SDS011;53892;43.258;-2.932;2022-12-08T00:06:06;8.65;;;5.47;;
66957;SDS011;53892;43.258;-2.932;2022-12-08T00:08:51;11.68;;;5.32;;
66957;SDS011;53892;43.258;-2.932;2022-12-08T00:11:36;7.57;;;5.03;;
66957;SDS011;53892;43.258;-2.932;2022-12-08T00:14:03;9.68;;;5.40;;
66957;SDS011;53892;43.258;-2.932;2022-12-08T00:16:29;9.63;;;5.38;;
66957;SDS011;53892;43.258;-2.932;2022-12-08T00:18:55;11.50;;;5.45;;
66957;SDS011;53892;43.258;-2.932;2022-12-08T00:21:21;9.43;;;5.30;;
66957;SDS011;53892;43.258;-2.932;2022-12-08T00:23:47;9.05;;;5.35;;
66957;SDS011;53892;43.258;-2.932;2022-12-08T00:26:13;11.45;;;5.32;;
66957;SDS011;53892;43.258;-2.932;2022-12-08T00:28:39;9.95;;;5.47;;
66957;SDS011;53892;43.258;-2.932;2022-12-08T00:31:07;8.02;;;4.70;;
66957;SDS011;53892;43.258;-2.932;2022-12-08T00:33:33;9.00;;;5.05;;
66957;SDS011;53892;43.258;-2.932;2022-12-08T00:36:09;9.27;;;5.05;;
66957;SDS011;53892;43.258;-2.932;2022-12-08T00:38:36;10.15;;;5.38;;
66957;SDS011;53892;43.258;-2.932;2022-12-08T00:41:03;8.70;;;4.82;;
66957;SDS011;53892;43.258;-2.932;2022-12-08T00:43:29;9.38;;;4.35;;
66957;SDS011;53892;43.258;-2.932;2022-12-08T00:45:55;7.78;;;4.20;;
66957;SDS011;53892;43.258;-2.932;2022-12-08T00:48:21;8.02;;;4.47;;
66957;SDS011;53892;43.258;-2.932;2022-12-08T00:50:47;8.02;;;4.13;;
66957;SDS011;53892;43.258;-2.932;2022-12-08T00:53:13;6.20;;;4.10;;
66957;SDS011;53892;43.258;-2.932;2022-12-08T00:55:39;8.27;;;4.47;;
66957;SDS011;53892;43.258;-2.932;2022-12-08T00:58:06;9.98;;;4.93;;
66957;SDS011;53892;43.258;-2.932;2022-12-08T01:00:32;9.73;;;4.43;;
66957;SDS011;53892;43.258;-2.932;2022-12-08T01:02:58;7.45;;;4.60;;
66957;SDS011;53892;43.258;-2.932;2022-12-08T01:05:24;12.80;;;4.72;;
66957;SDS011;53892;43.258;-2.932;2022-12-08T01:07:50;7.70;;;4.47;;
66957;SDS011;53892;43.258;-2.932;2022-12-08T01:10:17;7.95;;;4.97;;
66957;SDS011;53892;43.258;-2.932;2022-12-08T01:12:43;8.98;;;4.38;;
66957;SDS011;53892;43.258;-2.932;2022-12-08T01:15:09;9.70;;;4.53;;
66957;SDS011;53892;43.258;-2.932;2022-12-08T01:17:35;8.23;;;4.30;;
66957;SDS011;53892;43.258;-2.932;2022-12-08T01:20:02;10.85;;;4.10;;
66957;SDS011;53892;43.258;-2.932;2022-12-08T01:22:28;5.95;;;3.35;;
66957;SDS011;53892;43.258;-2.932;2022-12-08T01:24:55;11.18;;;3.72;;
66957;SDS011;53892;43.258;-2.932;2022-12-08T01:27:21;7.57;;;3.63;;
66957;SDS011;53892;43.258;-2.932;2022-12-08T01:29:47;6.78;;;4.47;;
66957;SDS011;53892;43.258;-2.932;2022-12-08T01:32:13;9.32;;;4.18;;
66957;SDS011;53892;43.258;-2.932;2022-12-08T01:34:39;7.05;;;4.05;;
66957;SDS011;53892;43.258;-2.932;2022-12-08T01:37:05;10.32;;;5.18;;
66957;SDS011;53892;43.258;-2.932;2022-12-08T01:39:31;6.63;;;4.60;;
66957;SDS011;53892;43.258;-2.932;2022-12-08T01:41:58;5.93;;;3.67;;
66957;SDS011;53892;43.258;-2.932;2022-12-08T01:46:50;9.32;;;4.47;;
66957;SDS011;53892;43.258;-2.932;2022-12-08T01:49:30;8.25;;;4.32;;
66957;SDS011;53892;43.258;-2.932;2022-12-08T01:51:59;6.45;;;4.05;;
66957;SDS011;53892;43.258;-2.932;2022-12-08T01:54:35;6.72;;;4.13;;
66957;SDS011;53892;43.258;-2.932;2022-12-08T01:57:03;5.72;;;3.92;;
66957;SDS011;53892;43.258;-2.932;2022-12-08T01:59:31;9.50;;;4.80;;
66957;SDS011;53892;43.258;-2.932;2022-12-08T02:01:59;10.60;;;4.85;;
66957;SDS011;53892;43.258;-2.932;2022-12-08T02:04:25;8.10;;;4.30;;
66957;SDS011;53892;43.258;-2.932;2022-12-08T02:06:52;9.98;;;4.60;;
66957;SDS011;53892;43.258;-2.932;2022-12-08T02:09:18;8.60;;;5.03;;
66957;SDS011;53892;43.258;-2.932;2022-12-08T02:11:45;14.55;;;4.93;;
66957;SDS011;53892;43.258;-2.932;2022-12-08T02:14:11;6.75;;;4.32;;
66957;SDS011;53892;43.258;-2.932;2022-12-08T02:21:58;12.00;;;5.82;;
66957;SDS011;53892;43.258;-2.932;2022-12-08T02:34:30;22.15;;;7.90;;
66957;SDS011;53892;43.258;-2.932;2022-12-08T02:37:09;12.90;;;7.05;;
66957;SDS011;53892;43.258;-2.932;2022-12-08T02:39:55;16.13;;;7.28;;
66957;SDS011;53892;43.258;-2.932;2022-12-08T02:42:31;13.82;;;6.90;;
66957;SDS011;53892;43.258;-2.932;2022-12-08T02:45:01;10.50;;;6.40;;
66957;SDS011;53892;43.258;-2.932;2022-12-08T02:47:28;13.25;;;6.68;;
66957;SDS011;53892;43.258;-2.932;2022-12-08T02:49:55;12.63;;;6.85;;
66957;SDS011;53892;43.258;-2.932;2022-12-08T02:54:49;14.38;;;7.65;;
66957;SDS011;53892;43.258;-2.932;2022-12-08T02:58:06;15.57;;;6.57;;
66957;SDS011;53892;43.258;-2.932;2022-12-08T03:00:06;13.43;;;7.13;;
66957;SDS011;53892;43.258;-2.932;2022-12-08T03:13:36;23.95;;;11.38;;
66957;SDS011;53892;43.258;-2.932;2022-12-08T03:16:05;21.23;;;11.88;;
66957;SDS011;53892;43.258;-2.932;2022-12-08T03:18:32;20.45;;;10.52;;
66957;SDS011;53892;43.258;-2.932;2022-12-08T03:21:01;20.08;;;10.18;;
66957;SDS011;53892;43.258;-2.932;2022-12-08T03:23:28;22.00;;;10.70;;
66957;SDS011;53892;43.258;-2.932;2022-12-08T03:26:07;24.33;;;10.70;;
66957;SDS011;53892;43.258;-2.932;2022-12-08T03:28:36;19.15;;;10.15;;
66957;SDS011;53892;43.258;-2.932;2022-12-08T03:31:04;22.38;;;9.52;;
66957;SDS011;53892;43.258;-2.932;2022-12-08T03:33:32;13.48;;;7.72;;
66957;SDS011;53892;43.258;-2.932;2022-12-08T03:35:59;15.20;;;8.57;;
66957;SDS011;53892;43.258;-2.932;2022-12-08T03:38:31;11.88;;;7.47;;
66957;SDS011;53892;43.258;-2.932;2022-12-08T03:41:01;16.17;;;7.05;;
66957;SDS011;53892;43.258;-2.932;2022-12-08T03:43:49;13.15;;;6.28;;
66957;SDS011;53892;43.258;-2.932;2022-12-08T03:46:16;11.82;;;6.53;;
66957;SDS011;53892;43.258;-2.932;2022-12-08T03:48:42;11.30;;;6.28;;
66957;SDS011;53892;43.258;-2.932;2022-12-08T03:51:08;14.43;;;6.72;;
66957;SDS011;53892;43.258;-2.932;2022-12-08T03:53:35;13.48;;;6.75;;
66957;SDS011;53892;43.258;-2.932;2022-12-08T03:56:05;12.20;;;7.15;;
66957;SDS011;53892;43.258;-2.932;2022-12-08T03:58:31;11.82;;;5.88;;
66957;SDS011;53892;43.258;-2.932;2022-12-08T04:00:58;10.70;;;5.53;;
66957;SDS011;53892;43.258;-2.932;2022-12-08T04:03:24;8.77;;;5.53;;
66957;SDS011;53892;43.258;-2.932;2022-12-08T04:05:50;15.30;;;6.68;;
66957;SDS011;53892;43.258;-2.932;2022-12-08T04:08:17;13.48;;;5.97;;
66957;SDS011;53892;43.258;-2.932;2022-12-08T04:10:43;12.43;;;7.00;;
66957;SDS011;53892;43.258;-2.932;2022-12-08T04:13:09;14.70;;;6.95;;
66957;SDS011;53892;43.258;-2.932;2022-12-08T04:15:35;16.33;;;7.10;;
66957;SDS011;53892;43.258;-2.932;2022-12-08T04:18:01;11.25;;;6.70;;
66957;SDS011;53892;43.258;-2.932;2022-12-08T04:20:27;12.52;;;7.13;;
66957;SDS011;53892;43.258;-2.932;2022-12-08T04:22:53;13.23;;;7.35;;
66957;SDS011;53892;43.258;-2.932;2022-12-08T04:25:20;18.45;;;8.13;;
66957;SDS011;53892;43.258;-2.932;2022-12-08T04:27:46;14.57;;;7.15;;
66957;SDS011;53892;43.258;-2.932;2022-12-08T04:30:12;12.48;;;6.72;;
66957;SDS011;53892;43.258;-2.932;2022-12-08T04:32:38;10.80;;;7.10;;
66957;SDS011;53892;43.258;-2.932;2022-12-08T04:35:04;13.05;;;6.25;;
66957;SDS011;53892;43.258;-2.932;2022-12-08T04:37:30;13.15;;;7.03;;
66957;SDS011;53892;43.258;-2.932;2022-12-08T04:39:57;14.27;;;7.43;;
66957;SDS011;53892;43.258;-2.932;2022-12-08T04:42:23;15.20;;;7.75;;
66957;SDS011;53892;43.258;-2.932;2022-12-08T04:44:49;13.45;;;7.13;;
66957;SDS011;53892;43.258;-2.932;2022-12-08T04:47:15;15.40;;;7.43;;
66957;SDS011;53892;43.258;-2.932;2022-12-08T04:49:41;16.40;;;7.68;;
66957;SDS011;53892;43.258;-2.932;2022-12-08T04:52:07;15.20;;;7.03;;
66957;SDS011;53892;43.258;-2.932;2022-12-08T04:54:33;16.48;;;7.97;;
66957;SDS011;53892;43.258;-2.932;2022-12-08T04:56:59;18.63;;;7.90;;
66957;SDS011;53892;43.258;-2.932;2022-12-08T04:59:28;19.05;;;8.40;;
66957;SDS011;53892;43.258;-2.932;2022-12-08T05:01:54;17.92;;;8.98;;
66957;SDS011;53892;43.258;-2.932;2022-12-08T05:04:20;19.00;;;9.52;;
66957;SDS011;53892;43.258;-2.932;2022-12-08T05:06:47;25.58;;;12.38;;
66957;SDS011;53892;43.258;-2.932;2022-12-08T05:09:13;30.70;;;12.77;;
66957;SDS011;53892;43.258;-2.932;2022-12-08T05:11:39;27.05;;;13.68;;
66957;SDS011;53892;43.258;-2.932;2022-12-08T05:14:09;27.40;;;12.50;;
66957;SDS011;53892;43.258;-2.932;2022-12-08T05:16:36;27.88;;;13.35;;
66957;SDS011;53892;43.258;-2.932;2022-12-08T05:19:03;27.92;;;13.27;;
66957;SDS011;53892;43.258;-2.932;2022-12-08T05:21:29;29.83;;;11.90;;
66957;SDS011;53892;43.258;-2.932;2022-12-08T05:23:55;26.00;;;11.75;;
66957;SDS011;53892;43.258;-2.932;2022-12-08T05:26:21;23.95;;;10.88;;
66957;SDS011;53892;43.258;-2.932;2022-12-08T05:28:47;24.38;;;11.95;;
66957;SDS011;53892;43.258;-2.932;2022-12-08T05:31:14;21.17;;;10.27;;
66957;SDS011;53892;43.258;-2.932;2022-12-08T05:33:41;20.80;;;10.48;;
66957;SDS011;53892;43.258;-2.932;2022-12-08T05:36:08;20.25;;;10.25;;
66957;SDS011;53892;43.258;-2.932;2022-12-08T05:38:34;17.85;;;9.60;;
66957;SDS011;53892;43.258;-2.932;2022-12-08T05:41:01;17.48;;;8.45;;
66957;SDS011;53892;43.258;-2.932;2022-12-08T05:43:27;19.77;;;9.57;;
66957;SDS011;53892;43.258;-2.932;2022-12-08T05:45:53;18.17;;;9.25;;
66957;SDS011;53892;43.258;-2.932;2022-12-08T05:48:19;19.77;;;10.35;;
66957;SDS011;53892;43.258;-2.932;2022-12-08T05:50:46;21.23;;;10.15;;
66957;SDS011;53892;43.258;-2.932;2022-12-08T05:53:12;20.85;;;9.65;;
66957;SDS011;53892;43.258;-2.932;2022-12-08T05:55:38;26.17;;;9.73;;
66957;SDS011;53892;43.258;-2.932;2022-12-08T05:58:05;20.33;;;9.60;;
66957;SDS011;53892;43.258;-2.932;2022-12-08T06:00:31;20.08;;;9.85;;
66957;SDS011;53892;43.258;-2.932;2022-12-08T06:03:00;21.75;;;9.18;;
66957;SDS011;53892;43.258;-2.932;2022-12-08T06:05:26;18.77;;;9.23;;
66957;SDS011;53892;43.258;-2.932;2022-12-08T06:07:53;19.50;;;10.02;;
66957;SDS011;53892;43.258;-2.932;2022-12-08T06:10:19;19.02;;;10.10;;
66957;SDS011;53892;43.258;-2.932;2022-12-08T06:12:45;19.38;;;9.18;;
66957;SDS011;53892;43.258;-2.932;2022-12-08T06:15:11;19.80;;;9.55;;
66957;SDS011;53892;43.258;-2.932;2022-12-08T06:17:37;24.73;;;9.65;;
66957;SDS011;53892;43.258;-2.932;2022-12-08T06:20:03;18.38;;;9.00;;
66957;SDS011;53892;43.258;-2.932;2022-12-08T06:22:30;19.30;;;9.88;;
66957;SDS011;53892;43.258;-2.932;2022-12-08T06:24:56;20.33;;;9.73;;
66957;SDS011;53892;43.258;-2.932;2022-12-08T06:27:22;18.05;;;9.52;;
66957;SDS011;53892;43.258;-2.932;2022-12-08T06:29:48;23.40;;;10.82;;
66957;SDS011;53892;43.258;-2.932;2022-12-08T06:32:14;19.75;;;10.20;;
66957;SDS011;53892;43.258;-2.932;2022-12-08T06:34:40;21.48;;;9.40;;
66957;SDS011;53892;43.258;-2.932;2022-12-08T06:37:06;22.85;;;10.32;;
66957;SDS011;53892;43.258;-2.932;2022-12-08T06:39:33;23.55;;;11.48;;
66957;SDS011;53892;43.258;-2.932;2022-12-08T06:41:59;23.70;;;9.93;;
66957;SDS011;53892;43.258;-2.932;2022-12-08T06:44:43;19.60;;;8.98;;
66957;SDS011;53892;43.258;-2.932;2022-12-08T06:47:10;18.25;;;8.68;;
66957;SDS011;53892;43.258;-2.932;2022-12-08T06:49:36;15.40;;;8.00;;
66957;SDS011;53892;43.258;-2.932;2022-12-08T06:52:02;16.35;;;8.30;;
66957;SDS011;53892;43.258;-2.932;2022-12-08T06:54:28;20.48;;;8.60;;
66957;SDS011;53892;43.258;-2.932;2022-12-08T06:56:54;15.32;;;7.78;;
66957;SDS011;53892;43.258;-2.932;2022-12-08T06:59:20;17.77;;;8.15;;
66957;SDS011;53892;43.258;-2.932;2022-12-08T07:01:50;16.08;;;8.23;;
66957;SDS011;53892;43.258;-2.932;2022-12-08T07:04:16;16.35;;;7.70;;
66957;SDS011;53892;43.258;-2.932;2022-12-08T07:06:42;15.65;;;8.02;;
66957;SDS011;53892;43.258;-2.932;2022-12-08T07:09:08;16.02;;;7.30;;
66957;SDS011;53892;43.258;-2.932;2022-12-08T07:11:36;14.35;;;7.13;;
66957;SDS011;53892;43.258;-2.932;2022-12-08T07:14:02;13.05;;;7.38;;
66957;SDS011;53892;43.258;-2.932;2022-12-08T07:16:29;16.27;;;6.97;;
66957;SDS011;53892;43.258;-2.932;2022-12-08T07:18:55;15.13;;;6.65;;
66957;SDS011;53892;43.258;-2.932;2022-12-08T07:21:21;14.55;;;7.18;;
66957;SDS011;53892;43.258;-2.932;2022-12-08T07:23:49;15.25;;;8.20;;
66957;SDS011;53892;43.258;-2.932;2022-12-08T07:26:15;16.38;;;7.22;;
66957;SDS011;53892;43.258;-2.932;2022-12-08T07:28:41;11.48;;;7.07;;
66957;SDS011;53892;43.258;-2.932;2022-12-08T07:31:14;12.20;;;6.30;;
66957;SDS011;53892;43.258;-2.932;2022-12-08T07:36:07;10.73;;;5.38;;
66957;SDS011;53892;43.258;-2.932;2022-12-08T07:38:33;13.15;;;6.18;;
66957;SDS011;53892;43.258;-2.932;2022-12-08T07:40:59;11.05;;;6.15;;
66957;SDS011;53892;43.258;-2.932;2022-12-08T07:43:26;12.48;;;6.47;;
66957;SDS011;53892;43.258;-2.932;2022-12-08T07:45:52;12.85;;;6.18;;
66957;SDS011;53892;43.258;-2.932;2022-12-08T07:48:18;15.85;;;6.35;;
66957;SDS011;53892;43.258;-2.932;2022-12-08T07:50:45;13.82;;;6.15;;
66957;SDS011;53892;43.258;-2.932;2022-12-08T07:53:11;17.45;;;6.90;;
66957;SDS011;53892;43.258;-2.932;2022-12-08T07:55:41;11.93;;;5.90;;
66957;SDS011;53892;43.258;-2.932;2022-12-08T07:58:08;14.55;;;6.47;;
66957;SDS011;53892;43.258;-2.932;2022-12-08T08:00:34;12.95;;;6.25;;
66957;SDS011;53892;43.258;-2.932;2022-12-08T08:03:00;17.70;;;6.90;;
66957;SDS011;53892;43.258;-2.932;2022-12-08T08:05:26;16.75;;;6.93;;
66957;SDS011;53892;43.258;-2.932;2022-12-08T08:07:53;12.65;;;6.30;;
66957;SDS011;53892;43.258;-2.932;2022-12-08T08:10:19;12.73;;;6.28;;
66957;SDS011;53892;43.258;-2.932;2022-12-08T08:12:45;15.45;;;7.38;;
66957;SDS011;53892;43.258;-2.932;2022-12-08T08:15:11;16.33;;;7.93;;
66957;SDS011;53892;43.258;-2.932;2022-12-08T08:17:38;18.40;;;7.20;;
66957;SDS011;53892;43.258;-2.932;2022-12-08T08:20:04;13.48;;;7.05;;
66957;SDS011;53892;43.258;-2.932;2022-12-08T08:22:31;15.35;;;6.40;;
66957;SDS011;53892;43.258;-2.932;2022-12-08T08:24:58;12.52;;;6.10;;
66957;SDS011;53892;43.258;-2.932;2022-12-08T08:27:24;15.00;;;5.75;;
66957;SDS011;53892;43.258;-2.932;2022-12-08T08:29:51;11.80;;;4.95;;
66957;SDS011;53892;43.258;-2.932;2022-12-08T08:32:17;9.93;;;4.60;;
66957;SDS011;53892;43.258;-2.932;2022-12-08T08:34:43;12.30;;;5.43;;
66957;SDS011;53892;43.258;-2.932;2022-12-08T08:37:12;7.20;;;3.70;;
66957;SDS011;53892;43.258;-2.932;2022-12-08T08:39:38;8.80;;;4.13;;
66957;SDS011;53892;43.258;-2.932;2022-12-08T08:42:04;7.78;;;4.00;;
66957;SDS011;53892;43.258;-2.932;2022-12-08T08:44:30;9.00;;;4.25;;
66957;SDS011;53892;43.258;-2.932;2022-12-08T08:46:56;10.75;;;4.70;;
66957;SDS011;53892;43.258;-2.932;2022-12-08T08:49:22;9.75;;;5.10;;
66957;SDS011;53892;43.258;-2.932;2022-12-08T08:51:48;9.00;;;4.80;;
66957;SDS011;53892;43.258;-2.932;2022-12-08T08:54:15;13.00;;;5.05;;
66957;SDS011;53892;43.258;-2.932;2022-12-08T08:56:41;11.65;;;5.13;;
66957;SDS011;53892;43.258;-2.932;2022-12-08T08:59:10;9.85;;;5.20;;
66957;SDS011;53892;43.258;-2.932;2022-12-08T09:01:36;12.30;;;5.47;;
66957;SDS011;53892;43.258;-2.932;2022-12-08T09:04:02;10.38;;;5.15;;
66957;SDS011;53892;43.258;-2.932;2022-12-08T09:06:31;10.20;;;5.60;;
66957;SDS011;53892;43.258;-2.932;2022-12-08T09:08:57;13.15;;;5.18;;
66957;SDS011;53892;43.258;-2.932;2022-12-08T09:11:23;8.65;;;5.30;;
66957;SDS011;53892;43.258;-2.932;2022-12-08T09:13:50;9.80;;;5.47;;
66957;SDS011;53892;43.258;-2.932;2022-12-08T09:16:19;10.60;;;5.20;;
66957;SDS011;53892;43.258;-2.932;2022-12-08T09:18:46;10.10;;;4.65;;
66957;SDS011;53892;43.258;-2.932;2022-12-08T09:21:14;10.48;;;4.60;;
66957;SDS011;53892;43.258;-2.932;2022-12-08T09:23:44;9.82;;;5.22;;
66957;SDS011;53892;43.258;-2.932;2022-12-08T09:26:10;7.72;;;4.47;;
66957;SDS011;53892;43.258;-2.932;2022-12-08T09:28:36;9.00;;;3.92;;
66957;SDS011;53892;43.258;-2.932;2022-12-08T09:31:03;10.80;;;4.25;;
66957;SDS011;53892;43.258;-2.932;2022-12-08T09:33:29;8.48;;;4.50;;
66957;SDS011;53892;43.258;-2.932;2022-12-08T09:35:55;10.73;;;4.82;;
66957;SDS011;53892;43.258;-2.932;2022-12-08T09:38:21;7.50;;;4.28;;
66957;SDS011;53892;43.258;-2.932;2022-12-08T09:40:48;9.18;;;4.45;;
66957;SDS011;53892;43.258;-2.932;2022-12-08T09:45:50;9.98;;;4.78;;
66957;SDS011;53892;43.258;-2.932;2022-12-08T09:48:24;10.32;;;4.90;;
66957;SDS011;53892;43.258;-2.932;2022-12-08T09:50:55;8.68;;;4.97;;
66957;SDS011;53892;43.258;-2.932;2022-12-08T09:56:03;8.25;;;5.10;;
66957;SDS011;53892;43.258;-2.932;2022-12-08T09:58:50;10.93;;;4.90;;
66957;SDS011;53892;43.258;-2.932;2022-12-08T10:01:21;10.20;;;5.22;;
66957;SDS011;53892;43.258;-2.932;2022-12-08T10:03:48;7.90;;;4.55;;
66957;SDS011;53892;43.258;-2.932;2022-12-08T10:06:23;12.45;;;5.15;;
66957;SDS011;53892;43.258;-2.932;2022-12-08T10:09:05;10.00;;;4.30;;
66957;SDS011;53892;43.258;-2.932;2022-12-08T10:11:50;9.02;;;4.05;;
66957;SDS011;53892;43.258;-2.932;2022-12-08T10:14:33;7.95;;;3.25;;
66957;SDS011;53892;43.258;-2.932;2022-12-08T10:17:05;6.97;;;4.07;;
66957;SDS011;53892;43.258;-2.932;2022-12-08T10:19:32;6.75;;;3.97;;
66957;SDS011;53892;43.258;-2.932;2022-12-08T10:21:59;7.53;;;3.88;;
66957;SDS011;53892;43.258;-2.932;2022-12-08T10:26:55;7.05;;;3.53;;
66957;SDS011;53892;43.258;-2.932;2022-12-08T10:29:22;7.50;;;3.42;;
66957;SDS011;53892;43.258;-2.932;2022-12-08T10:31:48;5.32;;;3.38;;
66957;SDS011;53892;43.258;-2.932;2022-12-08T10:34:22;9.38;;;4.15;;
66957;SDS011;53892;43.258;-2.932;2022-12-08T10:44:31;7.00;;;3.53;;
66957;SDS011;53892;43.258;-2.932;2022-12-08T10:46:58;9.02;;;4.38;;
66957;SDS011;53892;43.258;-2.932;2022-12-08T10:49:28;8.73;;;3.42;;
66957;SDS011;53892;43.258;-2.932;2022-12-08T10:51:56;7.88;;;4.10;;
66957;SDS011;53892;43.258;-2.932;2022-12-08T10:54:27;8.32;;;3.88;;
66957;SDS011;53892;43.258;-2.932;2022-12-08T10:56:54;14.93;;;5.68;;
66957;SDS011;53892;43.258;-2.932;2022-12-08T10:59:21;12.32;;;4.45;;
66957;SDS011;53892;43.258;-2.932;2022-12-08T11:01:50;13.80;;;4.00;;
66957;SDS011;53892;43.258;-2.932;2022-12-08T11:04:29;5.72;;;3.42;;
66957;SDS011;53892;43.258;-2.932;2022-12-08T11:06:59;6.43;;;2.65;;
66957;SDS011;53892;43.258;-2.932;2022-12-08T11:09:32;6.22;;;2.97;;
66957;SDS011;53892;43.258;-2.932;2022-12-08T11:12:07;5.00;;;2.28;;
66957;SDS011;53892;43.258;-2.932;2022-12-08T11:17:21;6.28;;;2.88;;
66957;SDS011;53892;43.258;-2.932;2022-12-08T11:19:58;5.20;;;2.78;;
66957;SDS011;53892;43.258;-2.932;2022-12-08T11:22:33;3.60;;;2.30;;
66957;SDS011;53892;43.258;-2.932;2022-12-08T11:27:36;6.93;;;2.53;;
66957;SDS011;53892;43.258;-2.932;2022-12-08T11:30:05;4.25;;;2.45;;
66957;SDS011;53892;43.258;-2.932;2022-12-08T11:32:38;6.20;;;2.65;;
66957;SDS011;53892;43.258;-2.932;2022-12-08T11:35:05;6.93;;;1.85;;
66957;SDS011;53892;43.258;-2.932;2022-12-08T11:37:34;4.97;;;1.80;;
66957;SDS011;53892;43.258;-2.932;2022-12-08T11:40:03;6.60;;;2.25;;
66957;SDS011;53892;43.258;-2.932;2022-12-08T11:42:35;6.40;;;2.28;;
66957;SDS011;53892;43.258;-2.932;2022-12-08T11:45:11;2.67;;;1.58;;
66957;SDS011;53892;43.258;-2.932;2022-12-08T11:47:42;4.32;;;2.03;;
66957;SDS011;53892;43.258;-2.932;2022-12-08T11:52:44;3.50;;;1.50;;
66957;SDS011;53892;43.258;-2.932;2022-12-08T11:57:56;2.63;;;0.93;;
66957;SDS011;53892;43.258;-2.932;2022-12-08T12:00:22;6.15;;;1.83;;
66957;SDS011;53892;43.258;-2.932;2022-12-08T12:02:50;3.33;;;1.10;;
66957;SDS011;53892;43.258;-2.932;2022-12-08T12:07:57;3.35;;;1.38;;
66957;SDS011;53892;43.258;-2.932;2022-12-08T12:10:42;4.93;;;1.60;;
66957;SDS011;53892;43.258;-2.932;2022-12-08T12:13:59;6.43;;;1.77;;
66957;SDS011;53892;43.258;-2.932;2022-12-08T12:21:06;3.30;;;1.20;;
66957;SDS011;53892;43.258;-2.932;2022-12-08T12:26:02;2.95;;;1.05;;
66957;SDS011;53892;43.258;-2.932;2022-12-08T12:28:35;3.00;;;1.42;;
66957;SDS011;53892;43.258;-2.932;2022-12-08T12:31:05;4.18;;;1.08;;
66957;SDS011;53892;43.258;-2.932;2022-12-08T12:33:33;2.97;;;0.82;;
66957;SDS011;53892;43.258;-2.932;2022-12-08T12:36:01;4.20;;;0.80;;
66957;SDS011;53892;43.258;-2.932;2022-12-08T12:38:32;7.90;;;1.00;;
66957;SDS011;53892;43.258;-2.932;2022-12-08T12:41:25;3.13;;;1.10;;
66957;SDS011;53892;43.258;-2.932;2022-12-08T12:51:57;3.47;;;0.80;;
66957;SDS011;53892;43.258;-2.932;2022-12-08T12:54:24;2.70;;;0.90;;
66957;SDS011;53892;43.258;-2.932;2022-12-08T12:57:34;1.90;;;0.90;;
66957;SDS011;53892;43.258;-2.932;2022-12-08T13:05:27;4.30;;;0.88;;
66957;SDS011;53892;43.258;-2.932;2022-12-08T13:12:43;1.75;;;1.10;;
66957;SDS011;53892;43.258;-2.932;2022-12-08T13:15:17;4.05;;;1.08;;
66957;SDS011;53892;43.258;-2.932;2022-12-08T13:17:44;6.05;;;1.35;;
66957;SDS011;53892;43.258;-2.932;2022-12-08T13:20:18;1.55;;;0.75;;
66957;SDS011;53892;43.258;-2.932;2022-12-08T13:27:56;1.08;;;0.70;;
66957;SDS011;53892;43.258;-2.932;2022-12-08T13:33:07;2.38;;;1.15;;
66957;SDS011;53892;43.258;-2.932;2022-12-08T13:35:36;3.30;;;1.13;;
66957;SDS011;53892;43.258;-2.932;2022-12-08T13:38:05;4.13;;;1.60;;
66957;SDS011;53892;43.258;-2.932;2022-12-08T13:40:31;4.75;;;1.52;;
66957;SDS011;53892;43.258;-2.932;2022-12-08T13:45:44;5.18;;;1.75;;
66957;SDS011;53892;43.258;-2.932;2022-12-08T13:50:54;4.65;;;1.08;;
66957;SDS011;53892;43.258;-2.932;2022-12-08T13:55:48;1.40;;;0.80;;
66957;SDS011;53892;43.258;-2.932;2022-12-08T13:58:27;1.98;;;0.88;;
66957;SDS011;53892;43.258;-2.932;2022-12-08T14:03:26;1.58;;;0.70;;
66957;SDS011;53892;43.258;-2.932;2022-12-08T14:05:52;2.88;;;0.80;;
66957;SDS011;53892;43.258;-2.932;2022-12-08T14:08:20;1.90;;;0.85;;
66957;SDS011;53892;43.258;-2.932;2022-12-08T14:10:51;1.50;;;0.75;;
66957;SDS011;53892;43.258;-2.932;2022-12-08T14:13:18;2.38;;;0.73;;
66957;SDS011;53892;43.258;-2.932;2022-12-08T14:15:44;2.75;;;0.80;;
66957;SDS011;53892;43.258;-2.932;2022-12-08T14:18:27;2.55;;;0.80;;
66957;SDS011;53892;43.258;-2.932;2022-12-08T14:21:01;1.55;;;0.90;;
66957;SDS011;53892;43.258;-2.932;2022-12-08T14:23:28;3.17;;;0.95;;
66957;SDS011;53892;43.258;-2.932;2022-12-08T14:25:54;2.85;;;1.40;;
66957;SDS011;53892;43.258;-2.932;2022-12-08T14:28:21;3.38;;;1.17;;
66957;SDS011;53892;43.258;-2.932;2022-12-08T14:30:47;2.58;;;1.27;;
66957;SDS011;53892;43.258;-2.932;2022-12-08T14:33:15;1.38;;;0.77;;
66957;SDS011;53892;43.258;-2.932;2022-12-08T14:35:41;3.83;;;0.90;;
66957;SDS011;53892;43.258;-2.932;2022-12-08T14:38:17;3.33;;;0.95;;
66957;SDS011;53892;43.258;-2.932;2022-12-08T14:40:45;1.48;;;0.77;;
66957;SDS011;53892;43.258;-2.932;2022-12-08T14:43:16;1.38;;;0.55;;
66957;SDS011;53892;43.258;-2.932;2022-12-08T14:48:38;2.13;;;0.40;;
66957;SDS011;53892;43.258;-2.932;2022-12-08T14:56:23;2.13;;;0.45;;
66957;SDS011;53892;43.258;-2.932;2022-12-08T14:58:49;2.13;;;0.88;;
66957;SDS011;53892;43.258;-2.932;2022-12-08T15:01:17;2.08;;;0.63;;
66957;SDS011;53892;43.258;-2.932;2022-12-08T15:03:46;3.92;;;0.50;;
66957;SDS011;53892;43.258;-2.932;2022-12-08T15:06:13;1.98;;;0.30;;
66957;SDS011;53892;43.258;-2.932;2022-12-08T15:08:50;1.30;;;0.50;;
66957;SDS011;53892;43.258;-2.932;2022-12-08T15:13:43;3.20;;;0.50;;
66957;SDS011;53892;43.258;-2.932;2022-12-08T15:16:20;1.25;;;0.57;;
66957;SDS011;53892;43.258;-2.932;2022-12-08T15:18:54;2.83;;;0.43;;
66957;SDS011;53892;43.258;-2.932;2022-12-08T15:21:27;2.40;;;0.50;;
66957;SDS011;53892;43.258;-2.932;2022-12-08T15:23:54;2.30;;;0.60;;
66957;SDS011;53892;43.258;-2.932;2022-12-08T15:26:22;3.22;;;0.60;;
66957;SDS011;53892;43.258;-2.932;2022-12-08T15:28:48;5.10;;;1.08;;
66957;SDS011;53892;43.258;-2.932;2022-12-08T15:31:15;1.85;;;0.70;;
66957;SDS011;53892;43.258;-2.932;2022-12-08T15:33:42;2.25;;;0.55;;
66957;SDS011;53892;43.258;-2.932;2022-12-08T15:36:08;0.80;;;0.30;;
66957;SDS011;53892;43.258;-2.932;2022-12-08T15:38:34;1.70;;;0.50;;
66957;SDS011;53892;43.258;-2.932;2022-12-08T15:41:01;2.45;;;0.52;;
66957;SDS011;53892;43.258;-2.932;2022-12-08T15:43:28;2.10;;;0.47;;
66957;SDS011;53892;43.258;-2.932;2022-12-08T15:45:54;1.35;;;0.40;;
66957;SDS011;53892;43.258;-2.932;2022-12-08T15:48:21;1.02;;;0.30;;
66957;SDS011;53892;43.258;-2.932;2022-12-08T15:50:48;1.05;;;0.40;;
66957;SDS011;53892;43.258;-2.932;2022-12-08T15:53:15;0.90;;;0.20;;
66957;SDS011;53892;43.258;-2.932;2022-12-08T15:55:41;1.05;;;0.20;;
66957;SDS011;53892;43.258;-2.932;2022-12-08T15:58:12;0.98;;;0.63;;
66957;SDS011;53892;43.258;-2.932;2022-12-08T16:00:40;2.10;;;0.20;;
66957;SDS011;53892;43.258;-2.932;2022-12-08T16:03:08;0.40;;;0.13;;
66957;SDS011;53892;43.258;-2.932;2022-12-08T16:05:45;0.40;;;0.20;;
66957;SDS011;53892;43.258;-2.932;2022-12-08T16:08:12;1.42;;;0.30;;
66957;SDS011;53892;43.258;-2.932;2022-12-08T16:10:40;2.35;;;0.20;;
66957;SDS011;53892;43.258;-2.932;2022-12-08T16:13:11;0.50;;;0.10;;
66957;SDS011;53892;43.258;-2.932;2022-12-08T16:15:56;0.30;;;0.10;;
66957;SDS011;53892;43.258;-2.932;2022-12-08T16:18:24;0.40;;;0.10;;
66957;SDS011;53892;43.258;-2.932;2022-12-08T16:20:51;0.77;;;0.15;;
66957;SDS011;53892;43.258;-2.932;2022-12-08T16:23:17;1.77;;;0.20;;
66957;SDS011;53892;43.258;-2.932;2022-12-08T16:25:43;0.75;;;0.20;;
66957;SDS011;53892;43.258;-2.932;2022-12-08T16:28:11;0.28;;;0.15;;
66957;SDS011;53892;43.258;-2.932;2022-12-08T16:30:37;2.97;;;0.20;;
66957;SDS011;53892;43.258;-2.932;2022-12-08T16:33:04;0.80;;;0.25;;